Date,TemperatureHighF,TemperatureAvgF,TemperatureLowF,DewpointHighF,DewpointAvgF,DewpointLowF,HumidityHigh,HumidityAvg,HumidityLow,PressureMaxIn,PressureMinIn,WindSpeedMaxMPH,WindSpeedAvgMPH,GustSpeedMaxMPH,PrecipitationSumIn
2013-1-1,17.0,10.9,4.8,12.0,6.8,1.0,89,83,74,30.42,30.02,4,0,6,0.00
2013-1-2,23.1,8.6,0.9,10.0,1.6,-3.0,89,75,49,30.53,30.38,1,0,4,0.02
2013-1-3,19.4,5.7,-3.6,7.0,-0.6,-8.0,90,76,53,30.66,30.53,3,0,3,0.00
2013-1-4,26.5,9.6,-1.8,1.0,-3.3,-8.0,82,59,26,30.63,30.41,3,0,5,0.01
2013-1-5,36.9,20.0,7.6,9.0,-0.8,-6.0,70,44,22,30.55,30.45,3,0,5,0.01
2013-1-6,40.0,23.8,15.0,5.0,-2.3,-7.0,46,34,17,30.50,30.25,4,0,5,0.08
2013-1-10,34.3,30.1,28.2,12.0,7.6,4.0,46,39,30,29.79,29.64,5,1,12,0.01
2013-1-11,30.3,15.6,2.8,18.0,3.7,-7.0,88,61,42,29.90,29.38,13,4,23,0.00
2013-1-12,13.0,2.9,-5.1,-5.0,-9.0,-13.0,77,60,33,30.24,29.90,4,0,9,0.00
2013-1-13,11.9,3.4,-3.1,0.0,-5.6,-9.0,83,67,45,30.33,30.25,6,1,13,0.00
2013-1-14,14.1,5.8,-1.8,7.0,0.0,-6.0,86,78,58,30.31,30.17,5,0,8,0.00
2013-1-15,14.6,3.7,-5.0,3.0,-3.0,-9.0,85,75,53,30.64,30.28,2,0,3,0.03
2013-1-16,35.8,19.7,4.1,17.0,9.8,-2.0,84,67,41,30.69,30.53,3,0,7,0.02
2013-1-17,36.4,24.4,14.8,19.0,14.4,12.0,89,68,44,30.60,30.46,4,0,7,0.02
2013-1-18,38.0,27.7,20.3,18.0,13.3,8.0,73,56,34,30.47,30.23,4,1,8,0.00
2013-1-19,44.6,29.4,19.2,13.0,4.4,-4.0,70,38,17,30.39,30.23,3,0,4,0.00
2013-1-20,45.4,31.3,21.1,8.0,1.5,-3.0,45,29,14,30.32,30.11,3,0,9,0.00
2013-1-21,41.4,28.8,20.3,13.0,5.0,1.0,50,37,25,30.28,30.17,3,0,5,0.00
2013-1-22,46.6,33.9,24.9,8.0,-1.0,-13.0,42,24,13,30.30,30.20,4,0,8,0.00
2013-1-23,51.8,37.4,24.5,8.0,-6.5,-19.0,33,16,7,30.32,30.20,5,1,9,0.00
2013-1-24,44.5,37.3,31.7,24.0,11.0,-3.0,69,36,16,30.20,30.00,7,1,16,0.00
2013-1-25,43.0,34.5,27.1,30.0,27.4,22.0,86,76,60,30.20,30.06,5,1,7,0.00
2013-1-26,43.7,36.3,31.6,37.0,32.2,29.0,94,85,69,30.07,29.73,4,1,10,0.04
2013-1-27,37.6,33.2,31.0,31.0,29.8,27.0,96,87,73,29.83,29.69,12,2,15,0.07
2013-1-28,32.7,28.6,20.1,29.0,25.3,18.0,94,87,74,29.80,29.57,11,2,17,0.00
2013-1-29,19.8,13.8,5.4,18.0,10.6,2.0,92,87,76,30.03,29.53,7,0,9,0.00
2013-1-30,19.1,10.4,-0.1,14.0,5.2,-4.0,86,79,73,30.43,30.04,6,1,12,0.01
2013-1-31,32.9,22.7,15.8,19.0,15.9,12.0,88,76,49,30.43,30.31,5,1,8,0.17
2013-2-1,37.9,27.5,18.0,17.0,14.5,11.0,81,60,38,30.31,30.18,6,1,9,0.14
2013-2-2,41.0,28.8,19.7,16.0,9.3,-3.0,79,48,21,30.39,30.28,3,0,5,0.05
2013-2-3,41.6,31.3,23.5,17.0,7.4,-4.0,68,39,15,30.36,29.93,5,1,9,0.01
2013-2-4,41.7,28.9,19.3,19.0,13.4,3.0,83,57,22,30.06,29.93,5,1,9,0.00
2013-2-5,48.6,32.6,22.5,15.0,10.8,6.0,72,43,21,30.09,29.96,3,0,8,0.00
2013-2-6,42.5,33.2,26.9,21.0,17.0,12.0,74,52,36,29.96,29.75,6,1,9,0.00
2013-2-7,38.9,28.7,21.1,23.0,18.9,7.0,87,69,27,30.14,29.89,3,0,8,0.00
2013-2-8,36.4,27.6,19.1,22.0,18.0,12.0,82,68,49,30.13,29.83,10,2,14,0.00
2013-2-9,34.6,22.0,14.1,22.0,12.3,1.0,89,70,26,29.82,29.48,8,2,15,0.00
2013-2-10,22.8,15.5,10.9,14.0,10.8,7.0,90,82,63,30.13,29.69,6,1,11,0.01
2013-2-11,23.4,16.1,8.3,14.0,10.2,5.0,89,78,56,30.16,30.05,5,1,10,0.00
2013-2-12,23.5,13.5,3.8,12.0,4.5,-2.0,89,70,34,30.32,30.08,6,0,8,0.01
2013-2-13,34.3,19.6,8.0,15.0,8.1,3.0,81,63,40,30.33,30.18,4,1,8,0.03
2013-2-14,36.0,22.4,13.1,15.0,10.8,7.0,89,63,38,30.27,30.09,3,0,5,0.01
2013-2-15,29.9,20.6,12.8,15.0,6.2,-4.0,90,58,26,30.48,30.27,4,1,10,0.00
2013-2-16,40.3,26.9,14.3,11.0,4.6,0.0,53,40,22,30.48,30.19,6,1,11,0.00
2013-2-17,43.2,32.0,22.1,8.0,0.9,-11.0,49,29,10,30.18,29.65,7,1,10,0.00
2013-2-18,31.4,24.6,18.4,10.0,4.2,-1.0,61,43,27,30.14,29.61,6,2,16,0.00
2013-2-19,41.2,27.8,16.4,20.0,1.9,-31.0,78,37,8,30.15,29.76,7,1,13,0.00
2013-2-20,30.8,22.9,16.6,24.0,19.0,14.0,93,85,61,29.74,29.46,6,1,11,0.12
2013-2-21,26.4,19.7,13.9,19.0,15.5,12.0,91,84,69,29.94,29.54,8,1,11,0.00
2013-2-22,28.7,18.7,11.8,17.0,14.4,9.0,90,83,56,30.03,29.89,6,1,9,0.02
2013-2-23,33.6,20.9,10.0,13.0,9.5,5.0,87,64,38,30.09,29.78,6,1,9,0.09
2013-2-24,29.0,19.2,13.1,18.0,12.1,4.0,90,75,39,29.91,29.63,6,1,8,0.03
2013-2-25,31.0,18.8,4.9,7.0,3.6,-2.0,82,54,24,30.13,29.90,4,1,9,0.06
2013-2-26,26.3,18.2,10.4,11.0,5.5,2.0,88,59,40,30.14,29.77,7,2,17,0.00
2013-2-27,29.4,16.3,4.6,8.0,1.7,-3.0,88,57,27,30.42,30.14,6,1,8,0.00
2013-2-28,34.0,19.9,6.6,8.0,1.0,-4.0,64,46,24,30.45,30.34,5,1,10,0.00
2013-3-1,40.6,26.5,13.2,16.0,10.8,5.0,73,53,32,30.44,30.33,2,0,7,0.00
2013-3-2,48.6,34.4,21.0,20.0,15.8,13.0,70,49,26,30.42,30.16,4,1,9,0.00
2013-3-3,46.1,37.7,31.4,20.0,16.5,12.0,60,43,27,30.15,29.67,11,3,25,0.00
2013-3-4,38.6,33.9,24.4,25.0,20.7,17.0,73,59,48,29.98,29.64,9,3,17,0.00
2013-3-5,46.9,32.3,21.6,16.0,6.8,-6.0,72,39,11,30.25,30.00,5,1,7,0.00
2013-3-6,47.8,38.7,30.4,22.0,16.8,7.0,51,42,32,30.18,29.87,5,2,11,0.00
2013-3-7,52.0,41.3,33.1,20.0,12.9,5.0,48,33,16,29.91,29.80,6,2,10,0.00
2013-3-8,46.3,35.4,28.1,28.0,20.1,13.0,93,58,30,29.80,29.54,6,1,11,0.00
2013-3-9,26.9,20.6,16.3,25.0,17.3,12.0,94,87,75,30.02,29.53,8,1,12,0.00
2013-3-10,31.4,20.9,13.4,17.0,13.5,10.0,91,75,44,30.27,30.03,3,0,7,0.31
2013-3-11,42.7,29.5,17.8,21.0,16.2,11.0,82,61,28,30.28,30.04,4,1,12,0.05
2013-3-12,47.1,33.9,24.0,22.0,18.9,16.0,77,57,29,30.20,30.03,5,1,8,0.00
2013-3-13,52.0,39.1,30.0,23.0,21.0,17.0,70,51,25,30.23,30.15,4,1,7,0.00
2013-3-14,56.4,42.8,30.9,23.0,17.1,12.0,59,38,20,30.24,30.09,4,1,10,0.00
2013-3-15,58.4,45.8,34.3,21.0,14.8,11.0,48,30,17,30.09,29.77,5,1,11,0.00
2013-3-16,50.5,43.0,32.3,31.0,20.9,14.0,94,44,28,29.76,29.56,5,1,9,0.00
2013-3-17,44.0,34.5,28.0,32.0,24.0,10.0,94,70,30,29.74,29.56,9,2,19,0.17
2013-3-18,43.4,34.9,28.3,14.0,8.6,2.0,47,34,21,29.92,29.74,13,3,13,0.00
2013-3-19,39.9,33.8,27.9,18.0,9.4,1.0,57,37,24,30.12,29.89,4,1,10,0.00
2013-3-20,45.6,34.9,23.6,23.0,17.1,12.0,67,50,31,30.16,29.79,8,2,14,0.00
2013-3-21,47.2,38.0,31.7,28.0,19.9,8.0,74,51,24,29.78,29.44,9,2,16,0.00
2013-3-22,41.6,34.6,28.9,21.0,11.2,2.0,58,38,22,29.64,29.52,9,2,18,0.00
2013-3-23,34.4,21.6,7.2,13.0,2.5,-9.0,82,47,26,30.06,29.53,10,2,14,0.00
2013-3-24,32.9,18.9,6.9,11.0,0.9,-7.0,83,49,26,30.24,30.06,8,2,14,0.00
2013-3-25,36.7,20.3,5.2,11.0,4.6,-3.0,86,57,20,30.33,30.18,8,1,12,0.01
2013-3-26,48.5,34.1,19.5,17.0,10.5,5.0,58,39,24,30.32,29.96,6,2,13,0.00
2013-3-27,52.8,40.5,33.0,17.0,10.8,5.0,42,31,17,29.95,29.85,4,2,10,0.00
2013-3-28,54.8,42.5,32.0,18.0,11.4,6.0,42,29,18,29.99,29.88,8,1,10,0.00
2013-3-29,54.1,41.2,32.8,27.0,16.6,9.0,73,39,25,30.01,29.92,7,1,9,0.00
2013-3-30,56.3,43.4,31.7,28.0,21.2,15.0,66,45,23,30.05,29.86,5,1,8,0.00
2013-3-31,54.3,40.2,28.2,30.0,23.9,15.0,90,58,28,29.93,29.82,7,1,14,0.00
2013-4-1,57.9,45.0,32.3,27.0,17.5,10.0,63,36,18,29.90,29.70,5,1,9,0.00
2013-4-2,51.0,36.7,27.9,29.0,18.8,11.0,88,52,25,29.84,29.60,5,1,12,0.00
2013-4-3,45.4,33.3,25.7,29.0,25.0,17.0,93,74,34,30.14,29.84,5,0,7,0.02
2013-4-4,58.0,42.2,27.6,27.0,18.5,10.0,83,46,17,30.18,30.01,4,1,9,0.00
2013-4-5,59.6,48.2,39.2,21.0,15.0,11.0,38,27,17,30.00,29.61,8,2,18,0.00
2013-4-6,58.5,47.3,37.5,26.0,21.1,18.0,53,37,23,29.71,29.60,7,2,15,0.00
2013-4-7,56.5,47.2,39.0,23.0,18.1,13.0,49,33,20,29.60,29.50,9,3,21,0.00
2013-4-8,60.1,47.0,34.1,25.0,17.5,11.0,53,33,16,29.52,29.17,9,2,16,0.00
2013-4-9,46.1,28.9,18.1,25.0,20.8,15.0,91,74,32,29.75,29.14,6,1,9,0.05
2013-4-10,31.5,26.0,22.6,24.0,20.9,18.0,92,81,61,29.93,29.75,5,1,11,0.09
2013-4-11,46.3,31.8,16.8,29.0,21.0,14.0,90,68,34,29.96,29.83,7,2,12,0.00
2013-4-12,51.4,38.1,29.1,29.0,22.9,15.0,90,59,26,29.86,29.75,6,1,10,0.01
2013-4-13,56.3,41.9,28.7,23.0,17.6,9.0,77,43,21,29.84,29.43,9,3,18,0.00
2013-4-14,53.5,44.8,37.4,25.0,21.7,18.0,50,41,30,29.45,29.31,11,4,23,0.00
2013-4-15,59.1,46.7,37.0,24.0,19.8,13.0,51,36,18,29.50,29.37,10,3,23,0.00
2013-4-16,62.6,47.4,37.2,24.0,18.0,12.0,41,32,16,29.56,29.40,9,2,16,0.00
2013-4-17,49.2,36.0,21.6,28.0,18.6,7.0,90,55,24,29.67,29.30,8,1,19,0.00
2013-4-18,28.8,19.9,14.1,16.0,12.1,5.0,86,73,45,30.29,29.68,10,1,11,0.09
2013-4-19,47.8,29.6,12.6,13.0,5.5,1.0,68,39,20,30.39,30.00,7,2,10,0.00
2013-4-20,45.2,35.8,28.8,27.0,17.3,6.0,66,48,31,30.00,29.76,8,1,10,0.00
2013-4-21,56.7,41.1,27.8,25.0,16.1,3.0,77,43,16,30.05,29.88,8,2,13,0.00
2013-4-22,61.1,48.0,35.9,25.0,15.4,10.0,57,29,17,29.90,29.58,10,3,16,0.00
2013-4-23,43.6,32.4,18.5,29.0,22.8,12.0,92,70,35,30.04,29.55,7,1,18,0.08
2013-4-24,54.7,35.5,17.9,19.0,9.0,-2.0,88,39,14,30.17,30.05,9,2,13,0.01
2013-4-25,55.2,39.2,29.0,34.0,25.3,18.0,95,61,33,30.14,29.80,6,1,15,0.14
2013-4-26,51.5,37.8,30.7,36.0,31.4,27.0,96,80,39,30.18,29.87,3,0,7,0.04
2013-4-27,60.6,42.8,28.0,30.0,22.8,15.0,89,52,20,30.21,29.99,7,1,9,0.00
2013-4-28,66.4,49.6,32.1,20.0,13.9,8.0,53,27,11,29.99,29.71,7,1,8,0.00
2013-4-29,68.8,53.4,39.2,24.0,16.8,11.0,39,25,13,29.72,29.48,8,2,20,0.00
2013-4-30,70.0,56.4,44.1,21.0,15.4,10.0,32,21,13,29.52,29.41,8,2,16,0.00
2013-5-1,62.1,45.9,24.9,28.0,19.5,11.0,78,39,19,29.95,29.47,7,2,14,0.00
2013-5-2,47.1,29.7,14.0,19.0,11.0,1.0,81,51,16,30.43,29.97,8,1,13,0.00
2013-5-3,58.3,38.5,21.5,12.0,8.9,5.0,61,34,13,30.39,29.97,5,1,9,0.00
2013-5-4,56.6,41.0,26.0,15.0,11.5,8.0,48,31,19,30.00,29.83,7,1,14,0.00
2013-5-5,57.6,43.0,29.5,29.0,18.0,13.0,66,38,22,30.00,29.88,7,1,9,0.00
2013-5-6,49.4,39.7,34.8,36.0,28.0,16.0,94,66,40,29.92,29.77,5,1,13,0.10
2013-5-7,61.8,44.4,33.6,34.0,29.0,23.0,94,60,26,29.93,29.78,7,1,10,0.02
2013-5-8,56.7,42.8,30.9,32.0,23.0,13.0,90,51,22,29.86,29.74,6,2,12,0.00
2013-5-9,53.8,40.5,32.8,29.0,22.9,18.0,83,52,26,30.01,29.84,6,1,9,0.00
2013-5-10,53.6,39.5,29.7,33.0,28.1,22.0,88,67,32,30.18,30.00,5,1,15,0.01
2013-5-11,54.9,41.1,32.4,37.0,28.9,25.0,85,65,33,30.25,30.17,3,1,10,0.01
2013-5-12,63.0,46.8,34.3,34.0,29.6,23.0,83,55,28,30.23,30.04,4,0,7,0.00
2013-5-13,69.9,52.9,37.9,33.0,27.8,23.0,63,41,19,30.08,29.91,5,1,8,0.00
2013-5-14,67.5,52.2,42.5,41.0,31.6,27.0,67,47,24,29.90,29.71,4,0,8,0.02
2013-5-15,65.6,48.2,39.7,45.0,37.0,34.0,92,68,35,29.77,29.68,5,0,7,0.04
2013-5-16,71.2,55.6,39.5,37.0,24.5,13.0,86,37,14,29.80,29.63,6,2,11,0.00
2013-5-17,71.2,57.7,44.7,21.0,14.5,11.0,31,19,11,29.69,29.57,5,1,9,0.00
2013-5-18,65.0,51.5,43.1,29.0,20.3,11.0,48,30,20,29.62,29.52,8,2,15,0.00
2013-5-19,57.3,45.4,35.6,31.0,23.9,13.0,83,46,22,29.71,29.57,8,2,26,0.00
2013-5-20,61.1,43.7,34.6,31.0,25.9,19.0,80,53,20,29.80,29.65,5,1,10,0.00
2013-5-21,63.2,46.7,31.5,32.0,24.9,18.0,85,49,19,29.87,29.72,9,1,10,0.00
2013-5-22,72.4,55.8,38.4,24.0,17.7,12.0,44,25,11,29.76,29.57,6,1,13,0.00
2013-5-23,70.2,58.4,45.0,46.0,24.1,15.0,79,29,13,29.67,29.57,5,1,14,0.00
2013-5-24,75.5,57.6,44.9,45.0,37.5,21.0,85,54,13,29.73,29.64,6,2,14,0.02
2013-5-25,76.5,60.3,43.9,44.0,28.3,10.0,86,40,8,29.72,29.61,8,2,14,0.00
2013-5-26,73.8,59.9,48.6,35.0,14.5,6.0,49,19,8,29.68,29.56,5,2,14,0.00
2013-5-27,68.4,56.0,44.0,16.0,8.4,5.0,22,15,9,29.62,29.50,7,2,13,0.00
2013-5-28,71.9,56.9,41.2,19.0,8.3,-2.0,32,16,6,29.58,29.35,7,2,12,0.00
2013-5-29,63.2,52.5,43.2,31.0,18.3,8.0,56,28,16,29.46,29.29,10,3,17,0.00
2013-5-30,67.2,53.2,41.9,25.0,16.2,9.0,40,25,11,29.62,29.46,17,3,22,0.00
2013-5-31,69.2,56.4,47.5,24.0,13.3,-1.0,37,20,8,29.72,29.54,7,3,18,0.00
2013-6-1,72.8,53.4,36.1,25.0,11.3,-8.0,38,21,5,29.88,29.70,5,1,14,0.00
2013-6-2,75.2,57.5,44.8,34.0,27.7,23.0,50,35,16,29.88,29.64,6,2,13,0.00
2013-6-3,76.8,60.6,46.1,42.0,30.0,21.0,60,35,14,29.66,29.51,7,2,19,0.00
2013-6-4,80.1,64.1,51.2,28.0,21.5,16.0,35,21,10,29.62,29.51,9,1,10,0.00
2013-6-5,69.0,55.0,45.8,46.0,35.2,26.0,60,48,27,29.77,29.53,8,1,14,0.00
2013-6-6,71.4,51.7,39.4,43.0,35.9,28.0,80,58,22,29.86,29.69,3,0,7,0.01
2013-6-7,70.7,51.9,39.2,42.0,34.9,25.0,87,57,21,29.86,29.69,5,1,9,0.00
2013-6-8,77.2,60.0,45.4,43.0,34.9,27.0,65,43,18,29.72,29.53,9,2,11,0.00
2013-6-9,79.1,61.9,43.6,49.0,42.3,32.0,86,53,21,29.70,29.62,8,1,11,0.00
2013-6-10,86.4,69.7,55.3,46.0,33.5,21.0,59,31,10,29.69,29.53,8,1,13,0.00
2013-6-11,84.3,69.8,56.3,27.0,19.1,4.0,29,16,6,29.62,29.52,12,2,16,0.00
2013-6-12,84.1,67.6,52.3,37.0,23.9,13.0,34,20,11,29.72,29.62,3,1,11,0.00
2013-6-13,79.2,62.0,46.9,46.0,34.5,27.0,93,39,20,29.80,29.64,6,1,13,0.35
2013-6-14,69.3,58.4,46.5,49.0,41.4,35.0,92,56,31,29.73,29.62,4,1,11,0.00
2013-6-15,79.8,63.8,48.7,42.0,32.4,20.0,70,37,12,29.74,29.62,8,2,16,0.00
2013-6-16,78.0,63.1,51.7,47.0,32.8,26.0,52,34,15,29.73,29.61,8,2,16,0.01
2013-6-17,77.0,58.8,44.3,41.0,35.7,27.0,67,46,16,29.80,29.67,10,1,11,0.00
2013-6-18,77.9,61.2,48.0,46.0,39.2,28.0,85,51,17,29.80,29.61,6,2,11,0.00
2013-6-19,82.1,65.9,48.4,48.0,26.9,0.0,86,36,5,29.60,29.46,7,2,15,0.00
2013-6-20,70.9,64.3,58.3,44.0,18.6,2.0,59,25,8,29.59,29.54,5,2,14,0.00
2013-6-21,81.6,63.6,48.7,44.0,20.6,8.0,64,26,7,29.65,29.53,6,2,13,0.00
2013-6-22,79.4,64.3,51.2,20.0,13.2,6.0,23,14,8,29.61,29.48,7,2,11,0.00
2013-6-23,81.1,65.1,50.6,20.0,11.0,-10.0,25,13,3,29.62,29.47,7,1,12,0.00
2013-6-24,78.3,64.8,50.8,21.0,10.6,-3.0,20,13,6,29.58,29.48,8,2,14,0.00
2013-6-25,79.3,64.5,51.9,27.0,16.5,0.0,28,16,9,29.67,29.56,7,2,12,0.00
2013-6-26,85.8,68.2,53.3,33.0,28.4,25.0,37,24,13,29.75,29.64,4,0,8,0.00
2013-6-27,85.5,67.6,54.4,40.0,30.5,26.0,40,26,12,29.83,29.70,4,0,8,0.00
2013-6-28,80.7,62.9,55.5,49.0,42.3,36.0,80,49,21,29.89,29.79,7,0,10,0.02
2013-6-29,77.8,57.9,49.4,53.0,41.9,37.0,92,58,23,29.89,29.80,3,0,6,0.21
2013-6-30,74.5,56.2,45.4,52.0,44.0,38.0,95,67,27,29.95,29.75,4,0,12,0.06
2013-7-1,65.2,51.9,42.9,52.0,46.5,42.0,97,83,49,30.03,29.91,5,0,9,0.07
2013-7-2,66.8,53.5,44.7,50.0,45.7,43.0,94,77,43,30.02,29.82,4,0,9,0.03
2013-7-3,65.4,53.1,44.1,56.0,45.3,38.0,96,77,48,29.89,29.71,4,0,10,0.06
2013-7-4,73.8,57.1,45.0,50.0,40.9,37.0,87,58,30,29.79,29.67,9,0,9,0.08
2013-7-5,78.7,59.4,49.6,51.0,45.8,41.0,96,65,30,29.74,29.53,6,1,10,0.00
2013-7-6,73.2,56.6,50.3,55.0,49.9,45.0,96,80,41,29.76,29.62,2,0,7,0.34
2013-7-7,70.6,59.9,50.3,60.0,50.7,45.0,96,73,43,29.79,29.69,3,0,8,0.20
2013-7-8,77.9,59.7,53.6,56.0,50.9,47.0,96,75,35,29.85,29.73,4,0,9,0.21
2013-7-9,79.4,59.7,53.1,56.0,50.2,41.0,95,74,31,29.89,29.82,3,0,7,0.24
2013-7-10,71.9,59.3,53.5,56.0,48.7,45.0,86,69,43,29.91,29.82,4,0,7,0.12
2013-7-11,54.1,53.9,53.6,46.0,46.0,46.0,76,75,75,29.87,29.86,0,0,1,0.00
2013-10-2,61.3,52.2,48.7,24.0,19.8,15.0,33,28,22,30.20,30.15,4,0,7,0.00
2013-10-3,61.6,51.3,42.0,30.0,22.1,15.0,54,33,20,30.17,29.98,9,2,14,0.00
2013-10-4,49.1,40.8,30.2,26.0,12.2,0.0,64,34,14,30.39,29.97,10,3,17,0.00
2013-10-5,46.8,33.9,22.0,18.0,14.1,8.0,66,46,29,30.73,30.39,6,1,10,0.00
2013-10-6,61.0,42.8,29.0,17.0,13.2,2.0,59,34,13,30.78,30.62,5,1,8,0.00
2013-10-7,62.7,47.6,34.3,23.0,16.5,10.0,39,30,20,30.65,30.40,5,1,9,0.00
2013-10-8,62.1,49.7,41.0,27.0,21.7,13.0,46,34,23,30.39,30.12,4,1,8,0.00
2013-10-9,61.4,49.4,40.7,31.0,25.4,15.0,56,41,17,30.20,30.09,5,1,10,0.00
2013-10-10,56.8,41.7,27.7,35.0,30.5,23.0,94,68,33,30.19,29.85,7,2,14,0.06
2013-10-11,43.6,32.6,26.3,32.0,27.0,23.0,89,80,62,30.58,30.16,8,2,15,0.11
2013-10-12,52.7,37.7,25.9,35.0,28.6,24.0,93,73,41,30.67,30.52,4,1,12,0.00
2013-10-13,56.6,46.0,34.9,43.0,36.3,30.0,89,70,46,30.59,30.26,9,2,14,0.00
2013-10-14,46.1,39.9,30.6,40.0,26.1,17.0,90,61,33,30.43,30.18,9,3,26,0.11
2013-10-15,44.3,33.5,25.1,29.0,23.3,14.0,94,68,44,30.54,30.42,6,1,13,0.00
2013-10-16,37.8,30.1,25.8,31.0,25.1,19.0,92,82,63,30.62,30.47,6,1,11,0.17
2013-10-17,46.3,33.3,22.2,24.0,18.1,12.0,89,59,29,30.64,30.43,5,1,8,0.12
2013-10-18,42.4,33.6,26.3,21.0,14.6,10.0,58,46,35,30.58,30.36,5,1,14,0.00
2013-10-19,45.4,32.0,25.4,18.0,14.4,10.0,65,49,32,30.61,30.47,3,0,6,0.00
2013-10-20,51.3,39.7,30.1,27.0,18.8,13.0,70,45,23,30.47,30.27,6,1,10,0.00
2013-10-21,46.9,35.7,27.9,33.0,26.0,19.0,95,71,35,30.61,30.35,3,0,8,0.04
2013-10-22,55.1,40.5,28.6,24.0,20.0,14.0,75,47,24,30.70,30.55,4,0,6,0.00
2013-10-23,59.3,45.1,36.2,23.0,18.4,12.0,56,37,16,30.58,30.43,5,0,7,0.00
2013-10-24,58.4,45.0,32.3,28.0,23.5,18.0,65,45,21,30.56,30.46,9,1,10,0.00
2013-10-25,49.4,40.5,34.6,40.0,34.7,27.0,95,81,56,30.56,30.41,4,0,8,0.07
2013-10-26,52.3,38.7,30.7,33.0,28.2,22.0,96,70,32,30.69,30.51,4,0,6,0.01
2013-10-27,50.9,39.9,31.9,33.0,29.7,27.0,85,69,41,30.64,30.30,5,1,9,0.00
2013-10-28,51.7,42.6,34.3,33.0,25.6,19.0,79,53,32,30.30,30.21,5,1,10,0.00
2013-10-29,50.8,42.7,33.1,31.0,20.4,17.0,90,42,26,30.30,30.15,8,2,14,0.00
2013-10-30,36.5,31.1,26.1,33.0,29.1,25.0,95,92,81,30.26,30.16,3,0,7,0.29
2013-10-31,31.9,26.1,22.0,28.0,23.2,20.0,94,89,81,30.57,30.24,6,1,9,0.04
2013-11-1,39.9,29.2,20.6,27.0,22.3,18.0,92,76,57,30.81,30.55,4,1,9,0.32
2013-11-2,51.0,37.0,25.8,25.0,20.9,14.0,84,56,25,30.81,30.45,3,0,7,0.03
2013-11-3,43.4,37.8,32.5,31.0,24.3,18.0,73,59,47,30.44,30.08,17,2,17,0.00
2013-11-4,47.8,37.3,30.1,30.0,22.5,14.0,93,58,30,30.33,30.15,8,1,15,0.00
2013-11-5,33.8,28.4,17.9,32.0,25.7,15.0,95,89,82,30.64,30.14,4,0,8,0.03
2013-11-6,34.8,24.0,13.3,21.0,15.9,10.0,90,73,50,31.05,30.65,4,0,9,0.17
2013-11-7,49.4,33.6,22.1,28.0,19.7,13.0,83,60,34,31.06,30.72,3,0,5,0.20
2013-11-8,47.6,37.6,29.9,24.0,16.5,12.0,50,43,32,30.71,30.43,4,1,11,0.01
2013-11-9,53.1,40.5,31.9,23.0,17.3,13.0,51,40,21,30.61,30.50,4,1,5,0.00
2013-11-10,53.1,41.4,34.4,20.0,17.0,13.0,50,38,22,30.66,30.57,3,1,7,0.00
2013-11-11,52.1,39.9,31.8,22.0,16.3,11.0,63,40,24,30.80,30.60,6,0,6,0.00
2013-11-12,50.1,34.2,24.9,28.0,20.7,17.0,74,59,28,30.97,30.80,3,0,7,0.00
2013-11-13,48.1,36.3,28.0,24.0,20.7,12.0,78,57,24,30.94,30.50,4,0,7,0.00
2013-11-14,45.7,35.3,27.6,27.0,23.5,19.0,86,64,37,30.49,30.33,5,0,7,0.00
2013-11-15,43.7,35.3,28.7,32.0,23.0,15.0,93,64,38,30.33,30.00,7,2,26,0.01
2013-11-16,35.5,33.6,30.9,30.0,27.9,25.0,89,79,68,30.08,29.94,13,4,24,0.04
2013-11-17,41.0,33.5,28.8,27.0,24.6,20.0,84,71,51,30.61,30.02,15,4,28,0.01
2013-11-18,44.1,33.4,27.1,21.0,17.1,11.0,70,53,32,30.68,30.58,3,0,7,0.00
2013-11-19,44.1,36.7,30.5,28.0,23.9,17.0,67,60,51,30.58,30.25,4,2,11,0.00
2013-11-20,41.6,34.5,30.0,30.0,25.4,23.0,94,71,49,30.29,30.18,4,1,7,0.00
2013-11-21,40.0,34.1,29.8,32.0,30.4,27.0,95,86,62,30.54,30.26,3,1,8,0.01
2013-11-22,29.6,22.8,17.0,28.0,20.9,15.0,95,92,87,30.96,30.54,0,0,2,0.00
2013-11-23,24.6,22.2,19.2,23.0,20.1,17.0,94,91,86,31.03,30.87,1,0,3,0.00
2013-11-24,26.3,19.1,14.8,22.0,16.5,13.0,93,89,82,30.86,30.58,4,0,7,0.00
2013-11-25,29.5,20.3,13.4,22.0,15.8,11.0,91,83,69,30.93,30.56,2,0,7,0.00
2013-11-26,33.6,22.4,13.6,22.0,16.4,11.0,90,78,53,31.02,30.92,2,0,4,0.20
2013-11-27,38.7,26.8,18.4,26.0,20.3,16.0,92,78,46,30.95,30.67,2,0,4,0.11
2013-11-28,44.1,29.3,20.4,21.0,14.0,9.0,87,56,25,30.77,30.67,3,0,7,0.09
2013-11-29,38.2,30.2,24.5,22.0,18.9,14.0,75,63,48,30.76,30.68,5,1,10,0.01
2013-11-30,41.3,32.5,26.6,23.0,20.7,18.0,76,63,42,30.74,30.63,6,1,8,0.03
2013-12-1,37.5,30.4,26.5,23.0,18.8,16.0,78,63,44,30.66,30.56,6,1,9,0.00
2013-12-2,42.8,33.0,27.2,21.0,18.3,14.0,73,56,37,30.58,30.21,5,1,9,0.01
2013-12-3,42.0,34.9,26.3,21.0,17.2,14.0,67,49,38,30.23,29.98,9,2,12,0.00
2013-12-4,37.3,30.4,19.5,24.0,18.3,15.0,88,63,45,30.18,29.78,13,4,20,0.00
2013-12-5,22.0,18.3,12.6,18.0,14.6,10.0,90,85,73,30.43,30.16,4,1,9,0.00
2013-12-6,16.8,12.1,9.4,10.0,6.5,3.0,88,78,62,30.79,30.42,5,2,14,0.00
2013-12-7,26.0,17.8,9.9,17.0,10.6,3.0,88,74,60,30.79,30.32,6,1,18,0.00
2013-12-8,18.6,12.4,7.0,16.0,6.1,-3.0,90,76,52,30.60,30.16,10,2,14,0.00
2013-12-9,11.4,6.2,-0.6,6.0,-0.8,-7.0,87,74,49,31.17,30.60,5,1,16,0.00
2013-12-10,28.4,16.7,-0.4,6.0,-1.1,-9.0,77,47,30,31.21,30.91,7,1,12,0.01
2013-12-11,31.9,23.0,16.1,10.0,4.8,1.0,55,46,35,31.06,30.87,3,0,7,0.05
2013-12-12,41.0,30.5,20.1,24.0,6.5,-7.0,76,38,20,31.05,30.52,3,0,9,0.08
2013-12-13,34.4,26.7,17.8,25.0,17.9,10.0,87,70,50,30.53,30.25,4,0,7,0.03
2013-12-14,30.0,19.9,11.3,14.0,9.8,8.0,86,66,42,31.00,30.54,5,0,6,0.01
2013-12-15,37.4,25.5,16.0,20.0,12.3,9.0,76,59,41,30.96,30.86,3,0,4,0.03
2013-12-16,44.3,32.6,23.4,20.0,12.7,7.0,55,44,30,30.88,30.74,3,0,5,0.05
2013-12-17,48.8,36.0,26.9,13.0,5.4,1.0,41,29,18,30.86,30.67,4,0,4,0.04
2013-12-18,45.3,36.5,30.7,13.0,7.0,0.0,42,30,20,30.66,30.26,4,0,9,0.00
2013-12-19,38.6,32.5,26.7,21.0,15.0,5.0,68,50,33,30.26,30.05,7,1,11,0.00
2013-12-20,35.4,28.1,23.5,19.0,16.5,15.0,81,63,44,30.19,30.07,6,1,12,0.00
2013-12-21,27.9,22.6,18.8,19.0,16.8,15.0,90,79,61,30.29,29.93,4,0,12,0.00
2013-12-22,23.4,18.0,11.7,16.0,12.1,8.0,90,78,56,30.83,30.29,4,0,8,0.04
2013-12-23,30.3,20.4,11.8,11.0,7.7,5.0,82,60,35,31.05,30.82,7,1,11,0.02
2013-12-24,36.6,27.6,19.3,21.0,14.7,6.0,76,59,51,30.99,30.64,5,1,11,0.01
2013-12-25,34.6,21.2,11.9,10.0,4.2,-3.0,76,51,22,30.99,30.74,3,0,5,0.00
2013-12-26,41.8,27.4,16.6,8.0,3.3,-1.0,53,37,22,30.99,30.78,3,0,7,0.00
2013-12-27,41.1,27.2,17.3,15.0,8.1,4.0,59,46,29,30.90,30.73,1,0,3,0.00
2013-12-28,39.3,28.9,21.8,17.0,12.8,10.0,69,52,37,30.73,30.32,2,0,5,0.00
2013-12-29,26.5,20.6,16.8,21.0,16.7,12.0,89,85,70,30.71,30.41,2,0,6,0.00
2013-12-30,37.4,25.5,18.6,18.0,13.4,10.0,89,63,38,30.84,30.70,3,0,11,0.04
2013-12-31,32.3,25.0,21.4,17.0,13.4,11.0,67,62,53,30.80,30.58,2,0,9,0.00
2014-1-1,36.2,27.2,21.9,19.0,15.1,5.0,77,61,40,30.77,30.49,5,1,8,0.00
2014-1-2,40.8,29.7,21.5,10.0,6.2,-1.0,56,39,17,30.84,30.66,5,1,8,0.00